Terminal Aerodrome Forecast
Issued by NWS Sterling, VA

Current Version | Previous Version | Graphics & Text | Print | Product List | Glossary On
Versions: 1 2 3 4 5 6 7 8 9 10 11 12 13 14 15 16 17 18 19 20
000
FTUS41 KLWX 170100 AAA
TAFMRB
TAF AMD
KMRB 170118Z 1701/1724 VRB03KT 1SM -SHRA OVC003
     FM170500 26007KT 5SM BR OVC008
     FM171000 28008KT P6SM BKN025
     FM171500 28012G20KT P6SM BKN045
     FM171700 28013G25KT P6SM SCT040=

USA.gov is the U.S. government's official web portal to all federal, state and local government web resources and services.